Time;durP1;ratioP1;P1;durP2;ratioP2;P2;SDS_P1;SDS_P2;PMS_P1;PMS_P2;Temp;Humidity;BMP_temperature;BMP_pressure;BME280_temperature;BME280_humidity;BME280_pressure;Samples;Min_cycle;Max_cycle;Signal;HPM_P1;HPM_P2
2023/03/31 00:01:05;;;;;;;8.35;2.50;;;;;;;9.95;100.00;99510.50;6228872;28;20041;-90
2023/03/31 00:04:12;;;;;;;5.93;2.35;;;;;;;9.99;100.00;99514.47;6245104;28;20139;-90
2023/03/31 00:07:15;;;;;;;7.72;2.55;;;;;;;9.97;100.00;99518.94;6243222;28;20033;-90
2023/03/31 00:10:18;;;;;;;8.25;2.28;;;;;;;9.93;100.00;99518.41;6242887;28;20052;-90
2023/03/31 00:13:20;;;;;;;7.45;2.30;;;;;;;9.78;100.00;99508.66;6260278;28;20143;-91
2023/03/31 00:16:22;;;;;;;5.35;1.73;;;;;;;9.68;100.00;99509.50;6257691;28;20048;-91
2023/03/31 00:19:24;;;;;;;5.28;1.98;;;;;;;9.43;100.00;99508.34;6262145;28;20514;-90
2023/03/31 00:22:26;;;;;;;5.00;2.13;;;;;;;9.28;100.00;99487.31;6261558;28;20037;-90
2023/03/31 00:25:28;;;;;;;6.75;2.25;;;;;;;9.16;100.00;99488.41;6241852;28;20090;-91
2023/03/31 00:28:32;;;;;;;5.43;1.83;;;;;;;9.06;100.00;99497.94;6242854;28;20060;-90
2023/03/31 00:31:34;;;;;;;5.85;2.03;;;;;;;8.93;100.00;99499.97;6261603;28;20049;-90
2023/03/31 00:34:37;;;;;;;4.85;1.67;;;;;;;8.89;100.00;99489.09;6260520;28;20064;-90
2023/03/31 00:37:42;;;;;;;7.57;1.98;;;;;;;8.79;100.00;99491.69;6260510;28;20120;-90
2023/03/31 00:40:46;;;;;;;4.78;1.42;;;;;;;8.89;100.00;99491.69;6261124;28;20072;-91
2023/03/31 00:44:26;;;;;;;6.13;1.70;;;;;;;8.99;100.00;99489.09;6258890;28;20041;-90
2023/03/31 00:47:28;;;;;;;8.48;2.10;;;;;;;8.97;100.00;99481.50;6236470;28;20037;-90
2023/03/31 00:50:40;;;;;;;5.88;1.67;;;;;;;8.94;100.00;99479.19;6242664;28;20049;-90
2023/03/31 00:53:44;;;;;;;7.40;1.90;;;;;;;8.94;100.00;99473.22;6240201;28;20037;-90
2023/03/31 00:56:48;;;;;;;3.10;1.60;;;;;;;9.08;100.00;99472.00;6243283;28;20569;-90
2023/03/31 00:59:54;;;;;;;5.68;2.08;;;;;;;9.21;100.00;99468.16;6262001;28;20060;-90
2023/03/31 01:03:02;;;;;;;4.88;1.83;;;;;;;9.30;100.00;99468.28;6261639;28;20040;-90
2023/03/31 01:06:09;;;;;;;4.55;1.65;;;;;;;9.40;100.00;99459.56;6230947;28;20061;-90
2023/03/31 01:09:12;;;;;;;2.47;1.60;;;;;;;9.26;100.00;99460.00;6250879;28;20118;-90
2023/03/31 01:12:16;;;;;;;4.72;1.67;;;;;;;9.15;100.00;99450.66;6226599;28;20222;-90
2023/03/31 01:15:21;;;;;;;4.32;1.50;;;;;;;8.99;100.00;99450.38;6258333;28;20063;-90
2023/03/31 01:18:23;;;;;;;5.30;1.92;;;;;;;8.87;100.00;99441.16;6243147;28;20087;-90
2023/03/31 01:22:16;;;;;;;5.45;1.90;;;;;;;8.83;100.00;99436.28;6258024;28;20029;-90
2023/03/31 01:25:56;;;;;;;4.35;1.80;;;;;;;8.89;100.00;99432.31;6197804;28;20240;-90
2023/03/31 01:29:10;;;;;;;4.07;1.63;;;;;;;8.94;100.00;99424.19;6201099;28;20069;-91
2023/03/31 01:32:26;;;;;;;5.55;1.95;;;;;;;8.87;100.00;99416.19;6207723;28;20049;-90
2023/03/31 01:35:34;;;;;;;8.65;1.85;;;;;;;8.72;100.00;99414.97;6205984;28;20112;-90
2023/03/31 01:39:15;;;;;;;5.47;1.92;;;;;;;8.56;100.00;99407.78;6207686;28;20053;-90
2023/03/31 01:42:38;;;;;;;3.67;1.60;;;;;;;8.38;100.00;99402.44;6206324;28;20072;-90
2023/03/31 01:45:54;;;;;;;5.18;2.20;;;;;;;8.26;100.00;99411.25;6207274;28;20076;-90
2023/03/31 01:49:12;;;;;;;3.78;1.50;;;;;;;8.18;100.00;99399.84;6205608;28;20057;-90
2023/03/31 01:52:20;;;;;;;6.90;1.67;;;;;;;8.13;100.00;99401.19;6205856;28;20117;-90
2023/03/31 01:55:34;;;;;;;4.15;1.88;;;;;;;8.06;100.00;99389.78;6206602;28;20645;-90
2023/03/31 01:58:43;;;;;;;4.00;1.85;;;;;;;8.00;100.00;99380.84;6228402;28;20044;-90
2023/03/31 02:02:17;;;;;;;4.60;2.10;;;;;;;8.01;100.00;99373.91;6259077;28;20049;-90
2023/03/31 02:05:24;;;;;;;5.22;2.30;;;;;;;7.99;100.00;99377.41;6211437;28;20064;-90
2023/03/31 02:08:37;;;;;;;4.15;2.00;;;;;;;8.08;100.00;99375.03;6189700;28;20053;-90
2023/03/31 02:11:41;;;;;;;5.75;1.80;;;;;;;8.04;100.00;99365.91;6209237;28;20632;-90
2023/03/31 02:14:46;;;;;;;3.63;2.00;;;;;;;8.01;100.00;99368.75;6217123;28;20062;-90
2023/03/31 02:17:53;;;;;;;6.32;1.98;;;;;;;8.03;100.00;99364.28;6202943;28;20072;-90
2023/03/31 02:20:57;;;;;;;8.82;2.17;;;;;;;8.09;100.00;99345.69;6197855;28;20060;-90
2023/03/31 02:24:03;;;;;;;3.67;2.00;;;;;;;8.05;100.00;99345.16;6201276;28;20049;-90
2023/03/31 02:27:26;;;;;;;4.68;2.40;;;;;;;7.99;100.00;99351.66;6200704;28;20042;-90
2023/03/31 02:30:53;;;;;;;5.68;2.05;;;;;;;7.97;100.00;99348.41;6184619;28;20061;-90
2023/03/31 02:33:55;;;;;;;6.38;2.25;;;;;;;8.02;100.00;99342.84;6204884;28;20081;-90
2023/03/31 02:36:57;;;;;;;4.45;2.20;;;;;;;8.01;100.00;99335.25;6219510;28;20662;-90
2023/03/31 02:40:05;;;;;;;6.13;2.05;;;;;;;7.93;100.00;99330.78;6226200;28;20088;-90
2023/03/31 02:43:07;;;;;;;4.55;2.20;;;;;;;7.85;100.00;99326.28;6256305;28;20060;-90
2023/03/31 02:46:09;;;;;;;6.72;2.10;;;;;;;7.82;100.00;99333.47;6228468;28;20088;-90
2023/03/31 02:49:14;;;;;;;5.72;2.00;;;;;;;7.77;100.00;99324.34;6213099;28;20071;-90
2023/03/31 02:52:42;;;;;;;3.13;1.80;;;;;;;7.79;100.00;99331.16;6246740;28;20072;-90
2023/03/31 02:56:20;;;;;;;2.20;1.40;;;;;;;7.79;100.00;99331.97;6259877;28;20049;-90
2023/03/31 03:00:00;;;;;;;8.30;1.88;;;;;;;7.84;100.00;99329.00;6222740;28;20045;-90
2023/03/31 03:03:23;;;;;;;5.15;1.40;;;;;;;7.87;100.00;99321.00;6219485;28;20060;-90
2023/03/31 03:06:43;;;;;;;3.17;1.30;;;;;;;7.87;100.00;99319.22;6202952;28;20065;-90
2023/03/31 03:10:22;;;;;;;4.43;1.40;;;;;;;7.90;100.00;99313.00;6230022;28;20112;-90
2023/03/31 03:13:54;;;;;;;5.20;1.40;;;;;;;7.89;100.00;99321.69;6235271;28;20058;-90
2023/03/31 03:17:09;;;;;;;4.00;1.13;;;;;;;7.90;100.00;99318.97;6212645;28;20088;-90
2023/03/31 03:20:13;;;;;;;4.47;1.48;;;;;;;7.86;100.00;99312.47;6236777;28;20037;-90
2023/03/31 03:23:15;;;;;;;5.82;1.40;;;;;;;7.88;100.00;99305.41;6235894;28;20057;-90
2023/03/31 03:26:20;;;;;;;3.50;1.58;;;;;;;7.84;100.00;99298.09;6236817;28;20152;-90
2023/03/31 03:29:22;;;;;;;3.22;1.20;;;;;;;7.84;100.00;99293.75;6237116;28;20459;-90
2023/03/31 03:32:23;;;;;;;3.00;1.20;;;;;;;7.82;100.00;99287.09;6236265;28;20049;-90
2023/03/31 03:35:25;;;;;;;4.38;1.27;;;;;;;7.83;100.00;99292.13;6245988;28;20524;-90
2023/03/31 03:38:27;;;;;;;5.70;1.40;;;;;;;7.81;100.00;99280.31;6265307;28;20037;-90
2023/03/31 03:41:30;;;;;;;7.07;1.50;;;;;;;7.80;100.00;99271.78;6246303;28;20513;-90
2023/03/31 03:44:32;;;;;;;4.47;1.35;;;;;;;7.83;100.00;99258.63;6264591;28;20044;-90
2023/03/31 03:47:34;;;;;;;5.32;1.10;;;;;;;7.83;100.00;99261.22;6262477;28;20681;-90
2023/03/31 03:50:37;;;;;;;2.72;1.08;;;;;;;7.83;100.00;99250.91;6263132;28;20048;-90
2023/03/31 03:53:39;;;;;;;6.18;1.35;;;;;;;7.80;100.00;99246.03;6262409;28;20041;-90
2023/03/31 03:56:40;;;;;;;4.32;1.40;;;;;;;7.81;100.00;99237.34;6264573;28;20094;-90
2023/03/31 03:59:42;;;;;;;5.30;1.10;;;;;;;7.82;100.00;99230.41;6263208;28;20041;-90
2023/03/31 04:02:44;;;;;;;7.93;1.50;;;;;;;7.82;100.00;99223.50;6234271;28;20089;-90
2023/03/31 04:05:48;;;;;;;3.63;1.10;;;;;;;7.87;100.00;99228.25;6265559;28;20037;-90
2023/03/31 04:08:50;;;;;;;4.25;1.38;;;;;;;7.96;100.00;99217.13;6238455;28;20056;-90
2023/03/31 04:11:52;;;;;;;4.50;1.20;;;;;;;7.99;100.00;99207.34;6245304;28;20045;-90
2023/03/31 04:14:53;;;;;;;4.05;1.35;;;;;;;8.03;100.00;99204.53;6264415;28;20041;-90
2023/03/31 04:17:56;;;;;;;2.30;1.02;;;;;;;8.02;100.00;99193.38;6263145;28;20064;-90
2023/03/31 04:21:05;;;;;;;5.18;1.50;;;;;;;8.02;100.00;99192.56;6246070;28;20041;-90
2023/03/31 04:24:06;;;;;;;4.10;1.17;;;;;;;7.98;100.00;99182.56;6262239;28;20212;-90
2023/03/31 04:27:09;;;;;;;5.05;1.20;;;;;;;7.98;100.00;99177.41;6242131;28;20044;-90
2023/03/31 04:30:21;;;;;;;5.28;1.25;;;;;;;7.98;100.00;99167.09;6259876;28;20684;-90
2023/03/31 04:33:23;;;;;;;3.92;1.30;;;;;;;8.01;100.00;99160.03;6264037;28;20111;-90
2023/03/31 04:36:25;;;;;;;3.33;1.10;;;;;;;8.03;100.00;99150.41;6262727;28;20055;-90
2023/03/31 04:39:29;;;;;;;2.50;1.20;;;;;;;8.05;100.00;99141.59;6261515;28;20034;-90
2023/03/31 04:42:31;;;;;;;4.68;1.30;;;;;;;8.08;100.00;99128.41;6244668;28;20533;-90
2023/03/31 04:45:33;;;;;;;5.32;1.40;;;;;;;8.13;100.00;99122.84;6259262;28;20048;-90
2023/03/31 04:48:35;;;;;;;4.40;1.10;;;;;;;8.16;100.00;99122.56;6263114;28;20037;-90
2023/03/31 04:51:36;;;;;;;2.70;1.20;;;;;;;8.18;100.00;99110.34;6259872;28;20042;-90
2023/03/31 04:54:38;;;;;;;5.65;1.30;;;;;;;8.19;100.00;99104.22;6260453;28;20049;-90
2023/03/31 04:57:40;;;;;;;6.93;1.88;;;;;;;8.22;100.00;99096.22;6264437;28;20076;-90
2023/03/31 05:00:42;;;;;;;3.17;1.20;;;;;;;8.20;100.00;99082.69;6263327;28;20410;-90
2023/03/31 05:03:46;;;;;;;3.10;1.33;;;;;;;8.23;100.00;99076.41;6263263;28;20512;-90
2023/03/31 05:06:49;;;;;;;1.80;1.10;;;;;;;8.28;100.00;99075.03;6244811;28;20132;-90
2023/03/31 05:09:50;;;;;;;3.08;1.05;;;;;;;8.36;100.00;99077.72;6251106;28;20478;-90
2023/03/31 05:12:52;;;;;;;3.03;1.73;;;;;;;8.34;100.00;99074.44;6243301;28;20045;-90
2023/03/31 05:15:54;;;;;;;5.03;1.40;;;;;;;8.36;100.00;99066.59;6246660;28;20048;-90
2023/03/31 05:18:56;;;;;;;1.85;1.10;;;;;;;8.38;100.00;99073.22;6262170;28;20102;-90
2023/03/31 05:21:58;;;;;;;4.55;1.20;;;;;;;8.44;100.00;99073.63;6236882;28;20076;-90
2023/03/31 05:25:00;;;;;;;3.33;1.70;;;;;;;8.51;100.00;99069.53;6251672;28;20046;-90
2023/03/31 05:28:02;;;;;;;5.38;1.80;;;;;;;8.56;100.00;99073.28;6260901;28;20597;-90
2023/03/31 05:31:07;;;;;;;1.90;1.27;;;;;;;8.59;100.00;99069.63;6261645;28;20178;-90
2023/03/31 05:34:09;;;;;;;3.55;1.40;;;;;;;8.63;100.00;99058.88;6259089;28;20380;-90
2023/03/31 05:37:10;;;;;;;4.45;1.10;;;;;;;8.67;100.00;99056.00;6233595;28;20070;-90
2023/03/31 05:40:13;;;;;;;4.03;1.38;;;;;;;8.69;100.00;99062.63;6262390;28;20744;-90
2023/03/31 05:43:14;;;;;;;5.68;1.80;;;;;;;8.70;100.00;99063.47;6226014;28;20048;-90
2023/03/31 05:46:17;;;;;;;5.55;1.23;;;;;;;8.71;100.00;99060.72;6251052;28;20040;-90
2023/03/31 05:49:19;;;;;;;3.10;1.20;;;;;;;8.79;100.00;99060.81;6240331;28;20049;-90
2023/03/31 05:52:21;;;;;;;4.13;1.40;;;;;;;8.75;100.00;99056.09;6232089;28;20053;-90
2023/03/31 05:55:23;;;;;;;3.75;1.60;;;;;;;8.73;100.00;99048.50;6261004;28;20045;-90
2023/03/31 05:58:25;;;;;;;5.95;1.40;;;;;;;8.73;100.00;99030.44;6259199;28;20057;-91
2023/03/31 06:01:28;;;;;;;2.60;1.35;;;;;;;8.76;100.00;99014.66;6258104;28;20510;-90
2023/03/31 06:04:31;;;;;;;5.53;1.40;;;;;;;8.92;100.00;99014.00;6240028;28;20060;-90
2023/03/31 06:07:33;;;;;;;2.00;1.00;;;;;;;9.04;100.00;99010.25;6252255;28;20045;-90
2023/03/31 06:10:37;;;;;;;3.17;1.15;;;;;;;9.16;100.00;99012.56;6227419;28;20102;-91
2023/03/31 06:13:40;;;;;;;2.42;0.98;;;;;;;9.18;100.00;99011.47;6252373;28;20045;-91
2023/03/31 06:16:41;;;;;;;2.97;1.10;;;;;;;9.22;100.00;99006.84;6260338;28;20044;-91
2023/03/31 06:19:43;;;;;;;4.55;0.85;;;;;;;9.33;100.00;98988.50;6238899;28;20138;-91
2023/03/31 06:22:45;;;;;;;2.08;0.93;;;;;;;9.50;100.00;98984.25;6260521;28;20033;-90
2023/03/31 06:25:47;;;;;;;3.13;1.40;;;;;;;9.68;100.00;98982.41;6258566;28;20037;-90
2023/03/31 06:28:53;;;;;;;3.22;1.15;;;;;;;9.77;100.00;98980.69;6253208;28;20048;-90
2023/03/31 06:31:55;;;;;;;3.45;1.20;;;;;;;9.80;100.00;98987.31;6241874;28;20514;-90
2023/03/31 06:34:57;;;;;;;2.80;1.08;;;;;;;9.73;100.00;98987.13;6261258;28;20132;-91
2023/03/31 06:37:59;;;;;;;3.72;0.98;;;;;;;9.62;100.00;98985.63;6259289;28;20516;-91
2023/03/31 06:41:01;;;;;;;2.15;1.02;;;;;;;9.52;100.00;98978.94;6261244;28;20616;-91
2023/03/31 06:44:03;;;;;;;5.63;1.20;;;;;;;9.41;100.00;98990.31;6244030;28;20132;-91
2023/03/31 06:47:06;;;;;;;5.38;1.52;;;;;;;9.37;100.00;98984.66;6237185;28;20054;-90
2023/03/31 06:50:08;;;;;;;4.57;1.20;;;;;;;9.34;100.00;98982.41;6253609;28;20041;-90
2023/03/31 06:53:11;;;;;;;4.50;1.23;;;;;;;9.37;100.00;98979.50;6258870;28;20037;-90
2023/03/31 06:56:13;;;;;;;5.78;1.20;;;;;;;9.40;100.00;98979.19;6260692;28;20503;-91
2023/03/31 06:59:15;;;;;;;5.95;1.38;;;;;;;9.44;100.00;98966.78;6230725;28;20554;-90
2023/03/31 07:02:17;;;;;;;4.72;1.38;;;;;;;9.50;100.00;98966.19;6237335;28;20052;-91
2023/03/31 07:05:25;;;;;;;3.35;1.00;;;;;;;9.51;100.00;98965.19;6256962;28;20143;-91
2023/03/31 07:08:27;;;;;;;4.13;1.60;;;;;;;9.57;100.00;98948.31;6248624;28;20047;-91
2023/03/31 07:11:30;;;;;;;5.82;1.30;;;;;;;9.58;100.00;98953.31;6237916;28;20049;-91
2023/03/31 07:14:33;;;;;;;5.03;1.20;;;;;;;9.72;100.00;98943.38;6240372;28;20052;-91
2023/03/31 07:17:36;;;;;;;3.80;1.15;;;;;;;9.78;100.00;98945.31;6259818;28;20053;-91
2023/03/31 07:20:38;;;;;;;4.97;1.20;;;;;;;9.77;100.00;98944.53;6250066;28;20045;-91
2023/03/31 07:23:40;;;;;;;6.00;1.40;;;;;;;9.71;100.00;98945.13;6256945;28;20044;-91
2023/03/31 07:26:42;;;;;;;4.03;1.30;;;;;;;9.63;100.00;98945.09;6232479;28;20045;-91
2023/03/31 07:29:44;;;;;;;2.38;1.40;;;;;;;9.58;100.00;98945.56;6239385;28;20034;-91
2023/03/31 07:32:48;;;;;;;3.63;1.27;;;;;;;9.60;100.00;98933.28;6244214;28;20037;-91
2023/03/31 07:35:50;;;;;;;2.50;1.10;;;;;;;9.69;100.00;98937.53;6258669;28;20112;-91
2023/03/31 07:39:08;;;;;;;2.47;1.13;;;;;;;9.86;100.00;98929.84;6246849;28;20498;-91
2023/03/31 07:42:10;;;;;;;3.45;1.45;;;;;;;9.89;100.00;98914.03;6247537;28;20383;-91
2023/03/31 07:45:12;;;;;;;2.63;1.30;;;;;;;9.98;100.00;98910.50;6252157;28;20040;-91
2023/03/31 07:48:14;;;;;;;1.92;1.10;;;;;;;9.98;100.00;98899.34;6236325;28;20049;-91
2023/03/31 07:51:19;;;;;;;2.90;1.48;;;;;;;10.06;100.00;98892.44;6254165;28;20053;-91
2023/03/31 07:54:22;;;;;;;3.00;1.52;;;;;;;10.13;100.00;98890.81;6265796;28;20128;-91
2023/03/31 07:57:23;;;;;;;2.13;1.15;;;;;;;10.27;100.00;98883.44;6240310;28;20052;-91
2023/03/31 08:00:25;;;;;;;2.15;1.20;;;;;;;10.50;100.00;98863.75;6261883;28;20049;-90
2023/03/31 08:03:30;;;;;;;3.58;1.30;;;;;;;10.72;100.00;98856.31;6240404;28;20045;-91
2023/03/31 08:06:32;;;;;;;4.25;1.17;;;;;;;10.71;100.00;98860.69;6256753;28;20634;-91
2023/03/31 08:09:34;;;;;;;3.33;1.70;;;;;;;10.61;100.00;98849.69;6242867;28;20037;-91
2023/03/31 08:12:36;;;;;;;5.13;1.33;;;;;;;10.48;100.00;98845.00;6243946;28;20052;-91
2023/03/31 08:15:39;;;;;;;3.25;1.48;;;;;;;10.39;100.00;98842.59;6255887;28;20411;-90
2023/03/31 08:18:41;;;;;;;4.82;1.33;;;;;;;10.38;100.00;98838.34;6250270;28;20073;-90
2023/03/31 08:21:42;;;;;;;2.83;1.50;;;;;;;10.45;100.00;98834.16;6251195;28;20043;-90
2023/03/31 08:24:45;;;;;;;3.35;1.63;;;;;;;10.59;100.00;98827.53;6235587;28;20459;-90
2023/03/31 08:27:49;;;;;;;3.33;1.50;;;;;;;10.73;100.00;98816.50;6243349;28;20033;-90
2023/03/31 08:30:51;;;;;;;3.67;1.27;;;;;;;10.89;100.00;98803.53;6245625;28;20048;-91
2023/03/31 08:33:54;;;;;;;4.88;1.35;;;;;;;11.07;100.00;98794.75;6250155;28;20045;-89
2023/03/31 08:36:55;;;;;;;3.40;1.35;;;;;;;11.27;100.00;98803.72;6232037;28;20096;-89
2023/03/31 08:39:57;;;;;;;3.33;1.27;;;;;;;11.28;100.00;98789.81;6257240;28;20037;-89
2023/03/31 08:43:07;;;;;;;4.20;1.58;;;;;;;11.18;100.00;98781.44;6258290;28;20379;-89
2023/03/31 08:46:13;;;;;;;3.45;1.40;;;;;;;11.07;100.00;98779.22;6253118;28;20037;-89
2023/03/31 08:49:18;;;;;;;2.25;0.95;;;;;;;10.93;100.00;98771.19;6254193;28;20669;-90
2023/03/31 08:52:28;;;;;;;2.88;0.90;;;;;;;10.77;100.00;98760.88;6256870;28;20052;-90
2023/03/31 08:55:41;;;;;;;4.10;1.40;;;;;;;10.62;100.00;98770.28;6258831;28;20436;-90
2023/03/31 08:58:49;;;;;;;1.52;0.90;;;;;;;10.51;100.00;98768.84;6241384;28;20481;-90
2023/03/31 09:02:17;;;;;;;2.38;0.82;;;;;;;10.42;100.00;98772.41;6254394;28;20694;-90
2023/03/31 09:06:07;;;;;;;3.78;1.00;;;;;;;10.39;100.00;98775.34;6255302;28;20076;-90
2023/03/31 09:09:34;;;;;;;3.28;1.00;;;;;;;10.37;100.00;98772.09;6200110;28;20045;-90
2023/03/31 09:12:45;;;;;;;3.22;1.35;;;;;;;10.51;100.00;98776.63;6070712;29;20112;-91
2023/03/31 09:16:04;;;;;;;1.73;1.30;;;;;;;10.64;100.00;98766.56;6072672;29;20171;-90
2023/03/31 09:19:17;;;;;;;1.48;0.90;;;;;;;10.61;100.00;98763.47;6089111;29;20083;-91
2023/03/31 09:22:26;;;;;;;3.95;1.33;;;;;;;10.60;100.00;98754.09;6073008;29;20515;-91
2023/03/31 09:25:40;;;;;;;2.83;0.90;;;;;;;10.63;100.00;98757.16;6089103;29;20463;-91
2023/03/31 09:28:52;;;;;;;2.58;1.00;;;;;;;10.55;100.00;98752.00;6051013;29;20191;-91
2023/03/31 09:32:20;;;;;;;3.72;1.00;;;;;;;10.50;100.00;98755.09;6079866;29;20051;-91
2023/03/31 09:35:25;;;;;;;2.20;1.08;;;;;;;10.46;100.00;98753.00;6080229;29;20537;-90
2023/03/31 09:38:28;;;;;;;1.08;0.90;;;;;;;10.43;100.00;98748.94;6078343;28;20070;-90
2023/03/31 09:41:30;;;;;;;3.92;1.10;;;;;;;10.39;100.00;98750.28;6136543;28;20047;-90
2023/03/31 09:44:45;;;;;;;1.40;0.90;;;;;;;10.45;100.00;98735.88;6126431;28;20086;-90
2023/03/31 09:47:58;;;;;;;2.78;1.00;;;;;;;10.42;100.00;98733.63;6120525;28;20518;-90
2023/03/31 09:51:04;;;;;;;2.95;1.00;;;;;;;10.43;100.00;98732.63;6258920;28;20110;-90
2023/03/31 09:54:14;;;;;;;1.85;0.80;;;;;;;10.47;100.00;98729.56;6260437;28;20041;-90
2023/03/31 09:57:38;;;;;;;1.83;0.90;;;;;;;10.56;100.00;98723.41;6259326;28;20453;-91
2023/03/31 10:01:01;;;;;;;3.47;0.98;;;;;;;10.65;100.00;98721.59;6260707;28;20048;-90
2023/03/31 10:04:07;;;;;;;1.92;0.90;;;;;;;10.71;100.00;98725.31;6243698;28;20893;-90
2023/03/31 10:07:11;;;;;;;2.08;0.90;;;;;;;10.77;100.00;98714.28;6260163;28;20068;-90
2023/03/31 10:10:33;;;;;;;1.67;0.70;;;;;;;10.75;100.00;98705.88;6242509;28;20495;-91
2023/03/31 10:14:01;;;;;;;1.95;0.90;;;;;;;10.73;100.00;98706.06;6254503;28;20099;-91
2023/03/31 10:17:06;;;;;;;0.90;0.70;;;;;;;10.72;100.00;98712.19;6225023;28;20135;-91
2023/03/31 10:20:36;;;;;;;1.75;0.90;;;;;;;10.83;100.00;98713.63;6252233;28;20534;-91
2023/03/31 10:23:37;;;;;;;2.70;0.75;;;;;;;10.92;100.00;98706.63;6238536;28;20508;-91
2023/03/31 10:26:40;;;;;;;2.20;0.88;;;;;;;11.00;100.00;98703.97;6251411;28;20049;-91
2023/03/31 10:29:42;;;;;;;2.50;0.70;;;;;;;11.08;100.00;98705.72;6250466;28;20052;-91
2023/03/31 10:32:43;;;;;;;1.08;0.60;;;;;;;11.10;100.00;98703.78;6251882;28;20449;-91
2023/03/31 10:35:53;;;;;;;1.60;0.80;;;;;;;11.09;100.00;98700.41;6238203;28;20037;-91
2023/03/31 10:38:55;;;;;;;1.92;0.70;;;;;;;11.04;100.00;98702.69;6256575;28;20403;-91
2023/03/31 10:41:58;;;;;;;2.03;0.88;;;;;;;10.98;100.00;98705.94;6250671;28;20045;-91
2023/03/31 10:45:35;;;;;;;2.53;0.70;;;;;;;10.96;100.00;98700.94;6261217;28;20092;-91
2023/03/31 10:48:41;;;;;;;0.98;0.60;;;;;;;10.96;100.00;98698.34;6186246;28;20092;-91
2023/03/31 10:51:55;;;;;;;1.02;0.50;;;;;;;10.98;100.00;98695.56;6203024;28;20240;-91
2023/03/31 10:55:00;;;;;;;2.35;0.60;;;;;;;10.92;100.00;98696.25;6213570;28;20042;-91
2023/03/31 10:58:22;;;;;;;0.70;0.50;;;;;;;10.89;100.00;98694.81;6214185;28;20049;-90
2023/03/31 11:01:46;;;;;;;1.40;0.60;;;;;;;10.84;100.00;98709.25;6208729;28;20053;-90
2023/03/31 11:05:16;;;;;;;2.30;0.98;;;;;;;10.81;100.00;98700.03;6207862;28;20062;-89
2023/03/31 11:08:56;;;;;;;1.25;0.50;;;;;;;10.79;100.00;98699.41;6207720;28;20038;-88
2023/03/31 11:12:17;;;;;;;1.98;0.70;;;;;;;10.84;100.00;98696.31;6209007;28;20432;-89
2023/03/31 11:15:38;;;;;;;0.85;0.50;;;;;;;10.76;100.00;98699.72;6209371;28;20053;-90
2023/03/31 11:19:02;;;;;;;1.90;0.60;;;;;;;10.78;100.00;98696.00;6206745;28;20844;-90
2023/03/31 11:22:29;;;;;;;2.65;0.80;;;;;;;10.89;100.00;98706.97;6209670;28;20045;-90
2023/03/31 11:25:47;;;;;;;1.63;0.80;;;;;;;10.94;100.00;98695.13;6247171;28;20491;-91
2023/03/31 11:29:06;;;;;;;1.03;0.70;;;;;;;10.97;100.00;98699.16;6261242;28;20094;-93
2023/03/31 11:32:14;;;;;;;1.02;0.70;;;;;;;10.89;100.00;98699.19;6253816;28;20628;-92
2023/03/31 11:35:27;;;;;;;1.85;0.70;;;;;;;10.85;100.00;98706.47;6240610;28;20041;-93
2023/03/31 11:38:32;;;;;;;1.83;1.05;;;;;;;10.70;100.00;98703.78;6262034;28;20143;-92
2023/03/31 11:41:48;;;;;;;0.93;0.50;;;;;;;10.50;100.00;98695.59;6249492;28;20388;-93
2023/03/31 11:44:56;;;;;;;3.90;0.80;;;;;;;10.53;100.00;98692.69;6249948;28;20179;-94
2023/03/31 11:48:04;;;;;;;0.63;0.50;;;;;;;10.62;100.00;98690.06;6239747;28;20080;-94
2023/03/31 11:51:18;;;;;;;3.60;0.70;;;;;;;10.76;100.00;98690.19;6254263;28;20042;-94
2023/03/31 11:54:28;;;;;;;0.65;0.65;;;;;;;10.94;100.00;98691.72;6251112;28;20198;-95
2023/03/31 11:57:45;;;;;;;0.82;0.70;;;;;;;11.10;100.00;98694.22;6250340;28;20657;-94
2023/03/31 12:01:05;;;;;;;0.70;0.68;;;;;;;11.28;100.00;98681.03;6257143;28;20041;-94
2023/03/31 12:04:34;;;;;;;1.40;1.10;;;;;;;11.56;100.00;98677.94;6249703;28;20029;-94
2023/03/31 12:07:57;;;;;;;1.35;0.63;;;;;;;11.88;100.00;98676.09;6254636;28;20053;-93
2023/03/31 12:11:19;;;;;;;2.58;0.90;;;;;;;12.37;100.00;98657.47;6243255;28;20057;-93
2023/03/31 12:14:36;;;;;;;1.80;0.70;;;;;;;12.79;100.00;98648.22;6258523;28;20115;-93
2023/03/31 12:17:42;;;;;;;2.35;0.70;;;;;;;13.01;100.00;98643.88;6252751;28;20114;-93
2023/03/31 12:20:57;;;;;;;2.13;0.77;;;;;;;13.01;100.00;98636.88;6241015;28;20350;-93
2023/03/31 12:23:58;;;;;;;1.38;0.80;;;;;;;12.90;100.00;98637.38;6243835;28;20395;-92
2023/03/31 12:27:15;;;;;;;1.60;0.80;;;;;;;12.98;100.00;98632.06;6248908;28;20721;-93
2023/03/31 12:30:17;;;;;;;1.20;0.80;;;;;;;13.06;100.00;98626.75;6237446;28;20045;-93
2023/03/31 12:33:24;;;;;;;1.70;0.70;;;;;;;13.32;100.00;98628.06;6247346;28;20053;-93
2023/03/31 12:37:03;;;;;;;1.35;0.70;;;;;;;13.72;100.00;98621.38;6242380;28;20096;-94
2023/03/31 12:40:24;;;;;;;1.80;0.93;;;;;;;14.28;100.00;98615.34;6246567;28;20063;-93
2023/03/31 12:43:52;;;;;;;4.45;1.38;;;;;;;14.87;100.00;98595.78;6226699;28;20049;-93
2023/03/31 12:47:05;;;;;;;2.03;0.90;;;;;;;15.19;100.00;98594.25;6226307;28;20077;-92
2023/03/31 12:50:35;;;;;;;4.40;1.17;;;;;;;15.32;100.00;98588.25;6251613;28;20048;-92
2023/03/31 12:54:14;;;;;;;5.07;1.03;;;;;;;15.20;100.00;98575.00;6245791;28;20087;-92
2023/03/31 12:57:22;;;;;;;4.80;1.02;;;;;;;15.15;100.00;98577.38;6252297;28;20412;-92
2023/03/31 13:00:26;;;;;;;2.78;1.10;;;;;;;15.10;100.00;98574.56;6241991;28;20360;-92
2023/03/31 13:03:44;;;;;;;1.13;0.82;;;;;;;15.08;100.00;98576.59;6236657;28;20033;-92
2023/03/31 13:06:58;;;;;;;3.40;0.93;;;;;;;14.88;100.00;98575.75;6224373;28;20046;-92
2023/03/31 13:10:15;;;;;;;2.80;1.42;;;;;;;14.38;100.00;98574.16;6246507;28;20132;-92
2023/03/31 13:13:18;;;;;;;3.78;1.23;;;;;;;13.88;100.00;98570.88;6231302;28;20041;-92
2023/03/31 13:16:20;;;;;;;2.45;1.00;;;;;;;13.52;100.00;98565.84;6224023;28;20041;-92
2023/03/31 13:19:33;;;;;;;4.65;1.00;;;;;;;13.38;100.00;98569.31;6239342;28;20044;-92
2023/03/31 13:22:39;;;;;;;1.63;1.10;;;;;;;13.28;100.00;98572.25;6235777;28;20037;-93
2023/03/31 13:25:57;;;;;;;2.72;1.10;;;;;;;13.18;100.00;98569.13;6245947;28;20578;-93
2023/03/31 13:29:10;;;;;;;3.67;1.25;;;;;;;13.04;100.00;98571.59;6238785;28;20044;-92
2023/03/31 13:32:11;;;;;;;2.33;1.00;;;;;;;12.92;100.00;98570.47;6239543;28;20041;-91
2023/03/31 13:35:24;;;;;;;2.17;0.98;;;;;;;12.99;100.00;98560.13;6237365;28;20041;-92
2023/03/31 13:38:51;;;;;;;4.22;1.05;;;;;;;13.01;100.00;98564.16;6249070;28;20428;-93
2023/03/31 13:42:18;;;;;;;3.17;1.00;;;;;;;13.04;100.00;98555.19;6240784;28;20610;-92
2023/03/31 13:45:44;;;;;;;4.32;1.33;;;;;;;12.97;100.00;98565.53;6245483;28;20040;-92
2023/03/31 13:49:25;;;;;;;4.85;1.33;;;;;;;12.88;100.00;98564.03;6242180;28;20419;-92
2023/03/31 13:52:38;;;;;;;7.28;1.50;;;;;;;12.85;100.00;98570.41;6243422;28;20087;-93
2023/03/31 13:56:08;;;;;;;3.08;1.10;;;;;;;12.88;100.00;98569.22;6247001;28;20053;-93
2023/03/31 13:59:16;;;;;;;2.38;1.20;;;;;;;12.74;100.00;98555.28;6243425;28;20049;-93
2023/03/31 14:02:57;;;;;;;3.35;1.30;;;;;;;12.46;100.00;98550.00;6233524;28;20045;-93
2023/03/31 14:06:06;;;;;;;4.57;1.30;;;;;;;12.19;100.00;98554.06;6225542;28;20045;-92
2023/03/31 14:09:12;;;;;;;3.17;1.35;;;;;;;11.99;100.00;98557.19;6256710;28;20474;-92
2023/03/31 14:12:29;;;;;;;3.05;1.27;;;;;;;11.87;100.00;98553.44;6253931;28;20088;-93
2023/03/31 14:15:31;;;;;;;3.13;1.15;;;;;;;11.85;100.00;98557.97;6260005;28;20045;-93
2023/03/31 14:18:39;;;;;;;3.85;1.05;;;;;;;11.92;100.00;98553.69;6257550;28;20048;-93
2023/03/31 14:22:05;;;;;;;2.50;1.17;;;;;;;12.00;100.00;98550.22;6258815;28;20084;-93
2023/03/31 14:25:24;;;;;;;3.25;1.40;;;;;;;12.09;100.00;98549.16;6260482;28;20052;-93
2023/03/31 14:28:59;;;;;;;8.18;1.85;;;;;;;12.22;100.00;98546.75;6254497;28;20045;-93
2023/03/31 14:32:32;;;;;;;4.68;1.40;;;;;;;12.48;100.00;98545.44;6258898;28;20198;-94
2023/03/31 14:35:43;;;;;;;6.75;1.63;;;;;;;12.78;100.00;98537.56;6255054;28;20040;-94
2023/03/31 14:38:45;;;;;;;3.75;1.40;;;;;;;12.98;100.00;98541.16;6258247;28;20072;-94
2023/03/31 14:41:56;;;;;;;3.45;1.40;;;;;;;13.08;100.00;98533.84;6259896;28;20049;-94
2023/03/31 14:45:17;;;;;;;4.07;1.38;;;;;;;13.04;100.00;98534.41;6247164;28;20041;-93
2023/03/31 14:48:20;;;;;;;5.47;1.75;;;;;;;12.88;100.00;98527.69;6257359;28;20039;-94